Capitol Logistics 7306

Operating for MZN



KCVG
Cincinnati/Northern Kentucky International Airport
Covington, Kentucky
KABE
Lehigh Valley International Airport
Allentown, Pennsylvania

Activity Log

Date Flight Route Aircraft Duration
06/27/2021 CPX7306 ROCKT1 ROCKT HIDON Q42 PSYKO Q71 PSB V30 ETX B763 1h 27m
04/10/2021 CPX7306 ROCKT1 ROCKT HIDON Q42 PSYKO Q71 PSB V30 ETX B752 1h 37m
04/08/2021 CPX7306 ROCKT1 ROCKT HIDON Q42 PSYKO Q71 PSB V30 ETX B752 1h 23m

Route Details

Aircraft Information
Primary: Boeing 767-300BDSF
Backup: Airbus A300-600F
Route Data
Distance: 437nm
Duration: 1h 25m
Recm'd Route: ROCKT1 ROCKT HIDON Q42 PSYKO Q71 PSB V30 ETX
Origin Wx: KCVG 020552Z 34007KT 10SM CLR 17/12 A3007 RMK AO2 SLP174 T01720122 10239 20172 51005
Dest. Wx: KABE 020551Z 26003KT 10SM CLR 14/13 A2988 RMK AO2 SLP119 60003 T01390133 10189 20139 51002 $
Notes: